createdAt,value
2019-05-05T00:00:08.383Z,0.00
2019-05-05T00:01:08.354Z,0.00
2019-05-05T00:02:08.354Z,0.00
2019-05-05T00:03:08.346Z,0.00
2019-05-05T00:04:08.339Z,0.00
2019-05-05T00:05:08.765Z,0.00
2019-05-05T00:06:08.320Z,0.00
2019-05-05T00:07:08.320Z,0.00
2019-05-05T00:08:08.322Z,0.00
2019-05-05T00:09:08.294Z,0.00
2019-05-05T00:10:08.295Z,0.00
2019-05-05T00:11:08.279Z,0.00
2019-05-05T00:12:08.289Z,0.00
2019-05-05T00:13:08.280Z,0.00
2019-05-05T00:14:08.276Z,0.00
2019-05-05T00:15:08.274Z,0.00
2019-05-05T00:16:08.237Z,0.00
2019-05-05T00:17:08.245Z,0.00
2019-05-05T00:18:08.245Z,0.00
2019-05-05T00:19:08.236Z,0.00
2019-05-05T00:20:08.224Z,0.00
2019-05-05T00:21:08.221Z,0.00
2019-05-05T00:22:08.192Z,0.00
2019-05-05T00:23:08.193Z,0.00
2019-05-05T00:24:08.183Z,0.00
2019-05-05T00:25:08.182Z,0.00
2019-05-05T00:26:08.176Z,0.00
2019-05-05T00:27:08.168Z,0.00
2019-05-05T00:28:08.170Z,0.00
2019-05-05T00:29:08.161Z,0.00
2019-05-05T00:30:08.138Z,0.00
2019-05-05T00:31:08.135Z,0.00
2019-05-05T00:32:08.134Z,0.00
2019-05-05T00:33:08.122Z,0.00
2019-05-05T00:34:08.121Z,0.00
2019-05-05T00:35:08.104Z,0.49
2019-05-05T00:36:08.109Z,0.10
2019-05-05T00:37:08.094Z,0.49
2019-05-05T00:38:08.070Z,0.49
2019-05-05T00:39:08.076Z,0.59
2019-05-05T00:40:08.069Z,0.78
2019-05-05T00:41:08.061Z,0.97
2019-05-05T00:42:08.037Z,0.97
2019-05-05T00:43:08.052Z,1.07
2019-05-05T00:44:08.044Z,1.26
2019-05-05T00:45:08.039Z,1.46
2019-05-05T00:46:08.019Z,1.46
2019-05-05T00:47:08.008Z,1.36
2019-05-05T00:48:08.002Z,1.36
2019-05-05T00:49:07.988Z,1.65
2019-05-05T00:50:07.982Z,1.36
2019-05-05T00:51:07.976Z,1.75
2019-05-05T00:52:07.971Z,1.46
2019-05-05T00:53:07.971Z,1.56
2019-05-05T00:54:07.953Z,1.46
2019-05-05T00:55:07.941Z,1.56
2019-05-05T00:56:07.936Z,1.46
2019-05-05T00:57:07.930Z,1.56
2019-05-05T00:58:07.926Z,1.56
2019-05-05T00:59:07.902Z,1.65
2019-05-05T01:00:07.903Z,1.75
2019-05-05T01:01:07.898Z,1.65
2019-05-05T01:02:07.898Z,1.65
2019-05-05T01:03:07.871Z,1.75
2019-05-05T01:04:07.876Z,1.95
2019-05-05T01:05:07.864Z,1.65
2019-05-05T01:06:07.843Z,2.14
2019-05-05T01:07:07.852Z,1.95
2019-05-05T01:08:07.843Z,2.24
2019-05-05T01:09:07.838Z,2.24
2019-05-05T01:10:07.809Z,2.14
2019-05-05T01:11:07.827Z,2.14
2019-05-05T01:12:07.805Z,2.24
2019-05-05T01:13:07.796Z,2.14
2019-05-05T01:14:07.792Z,2.24
2019-05-05T01:15:07.781Z,2.34
2019-05-05T01:16:07.771Z,2.34
2019-05-05T01:17:07.771Z,2.34
2019-05-05T01:18:07.756Z,2.44
2019-05-05T01:19:07.745Z,2.44
2019-05-05T01:20:07.733Z,2.24
2019-05-05T01:21:07.732Z,2.24
2019-05-05T01:22:07.724Z,2.34
2019-05-05T01:23:07.704Z,2.24
2019-05-05T01:24:07.694Z,2.34
2019-05-05T01:25:07.694Z,2.53
2019-05-05T01:26:07.707Z,2.62
2019-05-05T01:27:07.676Z,2.43
2019-05-05T01:28:07.685Z,2.43
2019-05-05T01:29:07.654Z,2.53
2019-05-05T01:30:07.668Z,2.43
2019-05-05T01:31:07.647Z,2.53
2019-05-05T01:32:07.634Z,2.62
2019-05-05T01:33:07.633Z,2.82
2019-05-05T01:34:07.612Z,2.92
2019-05-05T01:35:07.615Z,2.82
2019-05-05T01:36:07.601Z,2.62
2019-05-05T01:37:07.599Z,2.62
2019-05-05T01:38:07.595Z,2.82
2019-05-05T01:39:07.582Z,2.82
2019-05-05T01:40:07.573Z,2.92
2019-05-05T01:41:07.556Z,2.53
2019-05-05T01:42:07.559Z,2.62
2019-05-05T01:43:07.552Z,2.62
2019-05-05T01:44:07.530Z,2.43
2019-05-05T01:45:07.542Z,2.82
2019-05-05T01:46:07.524Z,2.82
2019-05-05T01:47:07.520Z,2.92
2019-05-05T01:48:07.510Z,3.11
2019-05-05T01:49:07.511Z,2.92
2019-05-05T01:50:17.243Z,3.02
2019-05-05T01:51:07.491Z,3.11
2019-05-05T01:52:07.477Z,3.02
2019-05-05T01:53:07.472Z,2.92
2019-05-05T01:54:07.448Z,2.82
2019-05-05T01:55:07.454Z,2.92
2019-05-05T01:56:07.450Z,2.82
2019-05-05T01:57:07.425Z,2.92
2019-05-05T01:58:07.424Z,3.02
2019-05-05T01:59:07.420Z,2.62
2019-05-05T02:00:07.423Z,2.92
2019-05-05T02:01:07.401Z,3.02
2019-05-05T02:02:07.382Z,2.82
2019-05-05T02:03:07.375Z,3.30
2019-05-05T02:04:07.385Z,3.20
2019-05-05T02:05:07.359Z,3.02
2019-05-05T02:06:07.363Z,3.20
2019-05-05T02:07:07.339Z,3.11
2019-05-05T02:08:07.333Z,3.20
2019-05-05T02:09:07.332Z,3.20
2019-05-05T02:10:07.327Z,3.30
2019-05-05T02:11:07.326Z,3.11
2019-05-05T02:12:07.307Z,3.30
2019-05-05T02:13:07.310Z,3.40
2019-05-05T02:14:07.281Z,3.30
2019-05-05T02:15:07.286Z,3.50
2019-05-05T02:16:07.276Z,3.69
2019-05-05T02:17:07.270Z,3.79
2019-05-05T02:18:07.266Z,3.50
2019-05-05T02:19:07.261Z,3.59
2019-05-05T02:20:07.235Z,3.59
2019-05-05T02:21:07.228Z,3.59
2019-05-05T02:22:07.227Z,3.40
2019-05-05T02:23:07.205Z,3.40
2019-05-05T02:24:07.210Z,3.88
2019-05-05T02:25:07.188Z,3.50
2019-05-05T02:26:07.180Z,3.50
2019-05-05T02:27:07.169Z,3.88
2019-05-05T02:28:07.170Z,3.98
2019-05-05T02:29:07.166Z,3.50
2019-05-05T02:30:07.153Z,3.50
2019-05-05T02:31:07.144Z,3.69
2019-05-05T02:32:07.153Z,3.78
2019-05-05T02:33:07.130Z,3.88
2019-05-05T02:34:07.123Z,3.78
2019-05-05T02:35:07.124Z,4.08
2019-05-05T02:36:07.106Z,4.17
2019-05-05T02:37:07.089Z,4.08
2019-05-05T02:38:07.126Z,4.08
2019-05-05T02:39:07.068Z,3.98
2019-05-05T02:40:07.609Z,3.98
2019-05-05T02:41:07.070Z,4.17
2019-05-05T02:42:07.062Z,4.27
2019-05-05T02:43:07.047Z,3.88
2019-05-05T02:44:07.028Z,4.08
2019-05-05T02:45:07.035Z,4.08
2019-05-05T02:46:07.010Z,3.88
2019-05-05T02:47:07.016Z,4.17
2019-05-05T02:48:07.012Z,4.27
2019-05-05T02:49:07.009Z,4.08
2019-05-05T02:50:07.011Z,4.36
2019-05-05T02:51:07.442Z,4.36
2019-05-05T02:52:06.969Z,4.17
2019-05-05T02:53:06.965Z,4.46
2019-05-05T02:54:06.961Z,4.17
2019-05-05T02:55:06.954Z,4.36
2019-05-05T02:56:06.944Z,4.46
2019-05-05T02:57:06.925Z,4.46
2019-05-05T02:58:06.913Z,4.75
2019-05-05T02:59:06.915Z,4.75
2019-05-05T03:00:06.889Z,4.66
2019-05-05T03:01:06.885Z,4.66
2019-05-05T03:02:06.891Z,4.56
2019-05-05T03:03:06.873Z,4.75
2019-05-05T03:04:06.850Z,4.75
2019-05-05T03:05:06.863Z,4.65
2019-05-05T03:06:06.842Z,4.75
2019-05-05T03:07:06.834Z,4.75
2019-05-05T03:08:06.822Z,4.65
2019-05-05T03:09:06.818Z,4.46
2019-05-05T03:10:06.803Z,4.36
2019-05-05T03:11:06.809Z,4.85
2019-05-05T03:12:06.783Z,4.75
2019-05-05T03:13:06.784Z,5.24
2019-05-05T03:14:06.774Z,5.23
2019-05-05T03:15:06.754Z,4.94
2019-05-05T03:16:06.762Z,4.94
2019-05-05T03:17:06.738Z,5.13
2019-05-05T03:18:06.748Z,5.04
2019-05-05T03:19:06.737Z,5.04
2019-05-05T03:20:06.719Z,5.04
2019-05-05T03:21:07.423Z,5.04
2019-05-05T03:22:06.704Z,5.04
2019-05-05T03:23:06.693Z,5.13
2019-05-05T03:24:06.696Z,5.33
2019-05-05T03:25:06.664Z,4.94
2019-05-05T03:26:06.668Z,5.13
2019-05-05T03:27:06.656Z,5.04
2019-05-05T03:28:06.649Z,5.23
2019-05-05T03:29:06.631Z,5.13
2019-05-05T03:30:06.641Z,5.23
2019-05-05T03:31:06.639Z,5.13
2019-05-05T03:32:11.261Z,5.13
2019-05-05T03:33:06.595Z,5.13
2019-05-05T03:34:06.809Z,4.94
2019-05-05T03:35:06.581Z,5.04
2019-05-05T03:36:06.574Z,5.13
2019-05-05T03:37:06.562Z,5.13
2019-05-05T03:38:06.552Z,5.04
2019-05-05T03:39:06.550Z,5.22
2019-05-05T03:40:06.536Z,5.32
2019-05-05T03:41:06.539Z,5.13
2019-05-05T03:42:06.509Z,5.52
2019-05-05T03:43:06.510Z,5.62
2019-05-05T03:44:06.508Z,5.81
2019-05-05T03:45:06.484Z,5.52
2019-05-05T03:46:06.485Z,5.32
2019-05-05T03:47:06.483Z,5.42
2019-05-05T03:48:06.470Z,5.22
2019-05-05T03:49:06.460Z,5.32
2019-05-05T03:50:06.457Z,5.51
2019-05-05T03:51:18.255Z,5.51
2019-05-05T03:52:06.441Z,5.80
2019-05-05T03:53:06.422Z,5.90
2019-05-05T03:54:06.411Z,6.00
2019-05-05T03:55:06.410Z,5.71
2019-05-05T03:56:06.404Z,6.00
2019-05-05T03:57:06.382Z,5.90
2019-05-05T03:58:06.382Z,5.80
2019-05-05T03:59:06.358Z,6.09
2019-05-05T04:00:06.370Z,5.99
2019-05-05T04:01:06.346Z,6.09
2019-05-05T04:02:06.342Z,5.90
2019-05-05T04:03:06.343Z,5.90
2019-05-05T04:04:06.328Z,6.29
2019-05-05T04:05:06.323Z,5.90
2019-05-05T04:06:06.313Z,6.29
2019-05-05T04:07:06.293Z,5.99
2019-05-05T04:08:06.304Z,6.19
2019-05-05T04:09:06.277Z,6.38
2019-05-05T04:10:06.253Z,6.38
2019-05-05T04:11:06.264Z,6.57
2019-05-05T04:12:06.236Z,6.38
2019-05-05T04:13:06.239Z,6.28
2019-05-05T04:14:06.244Z,6.38
2019-05-05T04:15:06.209Z,6.38
2019-05-05T04:16:06.222Z,6.48
2019-05-05T04:17:06.218Z,6.28
2019-05-05T04:18:06.181Z,6.19
2019-05-05T04:19:06.173Z,6.48
2019-05-05T04:20:06.170Z,6.48
2019-05-05T04:21:06.152Z,6.28
2019-05-05T04:22:06.153Z,6.48
2019-05-05T04:23:06.148Z,6.67
2019-05-05T04:24:06.132Z,6.48
2019-05-05T04:25:06.138Z,6.57
2019-05-05T04:26:06.118Z,6.57
2019-05-05T04:27:06.103Z,6.48
2019-05-05T04:28:06.086Z,6.28
2019-05-05T04:29:06.109Z,6.48
2019-05-05T04:30:06.084Z,6.76
2019-05-05T04:31:06.072Z,6.67
2019-05-05T04:32:06.057Z,6.67
2019-05-05T04:33:06.053Z,6.76
2019-05-05T04:34:06.056Z,6.67
2019-05-05T04:35:06.034Z,6.67
2019-05-05T04:36:06.023Z,6.76
2019-05-05T04:37:06.012Z,6.48
2019-05-05T04:38:06.012Z,6.67
2019-05-05T04:39:05.995Z,6.48
2019-05-05T04:40:05.993Z,6.57
2019-05-05T04:41:05.991Z,7.06
2019-05-05T04:42:05.967Z,6.76
2019-05-05T04:43:05.963Z,6.76
2019-05-05T04:44:05.948Z,6.76
2019-05-05T04:45:05.938Z,6.76
2019-05-05T04:46:05.930Z,6.76
2019-05-05T04:47:05.928Z,6.86
2019-05-05T04:48:05.913Z,6.76
2019-05-05T04:49:05.906Z,6.67
2019-05-05T04:50:05.904Z,6.96
2019-05-05T04:51:05.882Z,7.06
2019-05-05T04:52:05.874Z,6.96
2019-05-05T04:53:05.864Z,6.96
2019-05-05T04:54:05.855Z,6.86
2019-05-05T04:55:05.840Z,6.96
2019-05-05T04:56:05.823Z,6.96
2019-05-05T04:57:05.828Z,7.06
2019-05-05T04:58:05.813Z,7.06
2019-05-05T04:59:05.805Z,7.15
2019-05-05T05:00:05.797Z,7.44
2019-05-05T05:01:05.779Z,7.44
2019-05-05T05:02:05.769Z,7.44
2019-05-05T05:03:05.765Z,7.54
2019-05-05T05:04:05.765Z,7.15
2019-05-05T05:05:05.739Z,7.34
2019-05-05T05:06:05.730Z,7.44
2019-05-05T05:07:05.741Z,7.24
2019-05-05T05:08:05.722Z,7.24
2019-05-05T05:09:05.710Z,7.44
2019-05-05T05:10:05.701Z,7.34
2019-05-05T05:11:05.694Z,7.34
2019-05-05T05:12:05.696Z,7.44
2019-05-05T05:13:05.684Z,7.44
2019-05-05T05:14:05.665Z,7.34
2019-05-05T05:15:05.655Z,7.24
2019-05-05T05:16:05.644Z,7.34
2019-05-05T05:17:05.646Z,7.06
2019-05-05T05:18:05.646Z,7.34
2019-05-05T05:19:05.606Z,7.34
2019-05-05T05:20:05.606Z,7.34
2019-05-05T05:21:05.591Z,7.54
2019-05-05T05:22:05.608Z,7.34
2019-05-05T05:23:05.574Z,7.44
2019-05-05T05:24:05.557Z,7.43
2019-05-05T05:25:05.561Z,7.43
2019-05-05T05:26:05.557Z,7.34
2019-05-05T05:27:05.550Z,7.53
2019-05-05T05:28:05.536Z,7.34
2019-05-05T05:29:05.506Z,7.54
2019-05-05T05:30:05.498Z,7.34
2019-05-05T05:31:05.489Z,7.24
2019-05-05T05:32:05.478Z,7.24
2019-05-05T05:33:05.483Z,7.34
2019-05-05T05:34:05.460Z,7.24
2019-05-05T05:35:05.461Z,7.53
2019-05-05T05:36:05.458Z,7.24
2019-05-05T05:37:05.451Z,7.53
2019-05-05T05:38:05.425Z,7.34
2019-05-05T05:39:05.412Z,7.53
2019-05-05T05:40:05.412Z,7.53
2019-05-05T05:41:05.414Z,7.53
2019-05-05T05:42:05.406Z,7.34
2019-05-05T05:43:05.384Z,7.24
2019-05-05T05:44:05.365Z,7.53
2019-05-05T05:45:05.365Z,7.53
2019-05-05T05:46:05.366Z,7.43
2019-05-05T05:47:05.344Z,7.43
2019-05-05T05:48:05.331Z,7.34
2019-05-05T05:49:05.323Z,7.34
2019-05-05T05:50:05.311Z,7.43
2019-05-05T05:51:05.303Z,7.43
2019-05-05T05:52:13.572Z,7.43
2019-05-05T05:53:05.289Z,7.43
2019-05-05T05:54:05.273Z,7.43
2019-05-05T05:55:05.266Z,7.34
2019-05-05T05:56:05.265Z,7.43
2019-05-05T05:57:05.248Z,7.34
2019-05-05T05:58:05.242Z,7.53
2019-05-05T05:59:05.229Z,7.43
2019-05-05T06:00:05.208Z,7.43
2019-05-05T06:01:05.217Z,7.34
2019-05-05T06:02:09.788Z,7.43
2019-05-05T06:03:05.179Z,7.43
2019-05-05T06:04:05.178Z,7.43
2019-05-05T06:05:05.179Z,7.43
2019-05-05T06:06:05.165Z,7.34
2019-05-05T06:07:05.153Z,7.43
2019-05-05T06:08:05.143Z,7.53
2019-05-05T06:09:05.130Z,7.53
2019-05-05T06:10:05.110Z,7.43
2019-05-05T06:11:05.098Z,7.53
2019-05-05T06:12:05.101Z,7.53
2019-05-05T06:13:05.083Z,7.24
2019-05-05T06:14:05.089Z,7.24
2019-05-05T06:15:05.067Z,7.24
2019-05-05T06:16:05.062Z,7.24
2019-05-05T06:17:05.060Z,7.24
2019-05-05T06:18:05.054Z,7.24
2019-05-05T06:19:05.052Z,7.34
2019-05-05T06:20:05.032Z,7.34
2019-05-05T06:21:05.013Z,7.34
2019-05-05T06:22:05.010Z,7.34
2019-05-05T06:23:05.004Z,7.43
2019-05-05T06:24:04.987Z,7.34
2019-05-05T06:25:06.601Z,7.34
2019-05-05T06:26:06.707Z,7.34
2019-05-05T06:27:04.952Z,7.34
2019-05-05T06:28:04.946Z,7.34
2019-05-05T06:29:04.935Z,7.43
2019-05-05T06:30:04.942Z,7.14
2019-05-05T06:31:05.101Z,7.14
2019-05-05T06:32:04.918Z,7.14
2019-05-05T06:33:05.006Z,7.24
2019-05-05T06:34:04.887Z,7.53
2019-05-05T06:35:04.898Z,7.72
2019-05-05T06:36:04.883Z,7.62
2019-05-05T06:37:04.867Z,7.62
2019-05-05T06:38:04.892Z,7.62
2019-05-05T06:39:04.827Z,7.62
2019-05-05T06:40:04.824Z,7.53
2019-05-05T06:41:04.830Z,7.62
2019-05-05T06:42:04.808Z,7.53
2019-05-05T06:43:04.807Z,7.62
2019-05-05T06:44:04.796Z,7.62
2019-05-05T06:45:04.768Z,7.62
2019-05-05T06:46:04.778Z,7.43
2019-05-05T06:47:04.991Z,7.53
2019-05-05T06:48:04.756Z,7.43
2019-05-05T06:49:04.741Z,7.43
2019-05-05T06:50:04.718Z,7.43
2019-05-05T06:51:04.729Z,7.34
2019-05-05T06:52:04.711Z,7.43
2019-05-05T06:53:04.732Z,7.34
2019-05-05T06:54:04.770Z,7.43
2019-05-05T06:55:04.687Z,7.43
2019-05-05T06:56:04.660Z,7.91
2019-05-05T06:57:04.735Z,7.91
2019-05-05T06:58:04.720Z,8.01
2019-05-05T06:59:04.650Z,7.91
2019-05-05T07:00:04.639Z,7.53
2019-05-05T07:01:04.626Z,7.91
2019-05-05T07:02:04.608Z,7.91
2019-05-05T07:03:07.691Z,7.91
2019-05-05T07:04:04.576Z,7.91
2019-05-05T07:05:04.567Z,7.72
2019-05-05T07:06:04.629Z,7.62
2019-05-05T07:07:05.151Z,7.43
2019-05-05T07:08:04.614Z,7.62
2019-05-05T07:09:05.498Z,7.81
2019-05-05T07:10:04.523Z,7.53
2019-05-05T07:11:04.555Z,7.81
2019-05-05T07:12:04.750Z,7.72
2019-05-05T07:13:05.035Z,7.62
2019-05-05T07:14:04.478Z,7.62
2019-05-05T07:15:04.496Z,7.72
2019-05-05T07:16:04.981Z,7.72
2019-05-05T07:17:05.080Z,7.72
2019-05-05T07:18:04.462Z,7.62
2019-05-05T07:19:04.519Z,7.72
2019-05-05T07:20:04.523Z,7.62
2019-05-05T07:21:04.425Z,7.53
2019-05-05T07:22:04.415Z,7.53
2019-05-05T07:23:05.324Z,7.62
2019-05-05T07:24:04.388Z,7.91
2019-05-05T07:25:04.806Z,7.72
2019-05-05T07:26:04.433Z,8.01
2019-05-05T07:27:04.930Z,7.81
2019-05-05T07:28:04.424Z,7.81
2019-05-05T07:29:04.631Z,7.72
2019-05-05T07:30:04.825Z,8.01
2019-05-05T07:31:04.631Z,7.91
2019-05-05T07:32:04.347Z,8.11
2019-05-05T07:33:04.652Z,8.11
2019-05-05T07:34:04.754Z,8.01
2019-05-05T07:35:04.326Z,8.11
2019-05-05T07:36:06.135Z,8.11
2019-05-05T07:37:04.252Z,8.10
2019-05-05T07:38:04.575Z,8.11
2019-05-05T07:39:04.243Z,7.91
2019-05-05T07:40:04.323Z,8.11
2019-05-05T07:41:04.215Z,8.11
2019-05-05T07:42:04.587Z,7.90
2019-05-05T07:43:04.598Z,8.20
2019-05-05T07:44:04.805Z,7.90
2019-05-05T07:45:08.406Z,7.90
2019-05-05T07:46:04.552Z,8.00
2019-05-05T07:47:04.163Z,7.90
2019-05-05T07:48:04.796Z,8.00
2019-05-05T07:49:04.146Z,7.81
2019-05-05T07:50:04.227Z,7.90
2019-05-05T07:51:05.315Z,7.81
2019-05-05T07:52:04.189Z,7.81
2019-05-05T07:53:12.228Z,7.81
2019-05-05T07:54:04.095Z,7.81
2019-05-05T07:55:04.080Z,8.00
2019-05-05T07:56:07.417Z,7.81
2019-05-05T07:57:04.285Z,8.00
2019-05-05T07:58:04.409Z,8.10
2019-05-05T07:59:04.107Z,8.10
2019-05-05T08:00:05.378Z,8.10
2019-05-05T08:01:04.607Z,8.20
2019-05-05T08:02:04.112Z,8.10
2019-05-05T08:03:04.003Z,8.20
2019-05-05T08:04:04.627Z,8.20
2019-05-05T08:05:04.635Z,8.20
2019-05-05T08:06:04.052Z,8.20
2019-05-05T08:07:04.145Z,8.29
2019-05-05T08:08:04.587Z,8.20
2019-05-05T08:09:04.164Z,8.20
2019-05-05T08:10:04.524Z,8.20
2019-05-05T08:11:04.788Z,8.20
2019-05-05T08:12:04.373Z,8.10
2019-05-05T08:13:04.663Z,8.10
2019-05-05T08:14:04.177Z,8.20
2019-05-05T08:15:04.447Z,8.10
2019-05-05T08:16:03.933Z,8.10
2019-05-05T08:17:04.251Z,8.10
2019-05-05T08:18:04.557Z,8.10
2019-05-05T08:19:03.945Z,8.20
2019-05-05T08:20:04.080Z,8.10
2019-05-05T08:21:04.285Z,8.10
2019-05-05T08:22:03.914Z,8.20
2019-05-05T08:23:04.654Z,8.10
2019-05-05T08:24:04.642Z,8.29
2019-05-05T08:25:04.214Z,8.20
2019-05-05T08:26:04.584Z,8.29
2019-05-05T08:27:04.500Z,8.29
2019-05-05T08:28:04.327Z,8.29
2019-05-05T08:29:04.624Z,8.29
2019-05-05T08:30:05.246Z,8.20
2019-05-05T08:31:03.938Z,8.11
2019-05-05T08:32:04.365Z,8.11
2019-05-05T08:33:04.669Z,8.20
2019-05-05T08:34:03.949Z,8.10
2019-05-05T08:35:04.313Z,8.20
2019-05-05T08:36:04.549Z,8.10
2019-05-05T08:37:04.391Z,8.20
2019-05-05T08:38:04.618Z,8.20
2019-05-05T08:39:03.809Z,8.00
2019-05-05T08:40:04.300Z,8.20
2019-05-05T08:41:04.564Z,8.20
2019-05-05T08:42:04.261Z,8.11
2019-05-05T08:43:04.576Z,8.20
2019-05-05T08:44:03.745Z,8.20
2019-05-05T08:45:04.566Z,8.20
2019-05-05T08:46:04.904Z,8.29
2019-05-05T08:47:04.421Z,8.10
2019-05-05T08:48:04.924Z,8.10
2019-05-05T08:49:04.400Z,8.10
2019-05-05T08:50:04.173Z,8.29
2019-05-05T08:51:04.840Z,8.29
2019-05-05T08:52:04.022Z,8.29
2019-05-05T08:53:04.464Z,8.10
2019-05-05T08:54:03.949Z,8.29
2019-05-05T08:55:04.730Z,8.29
2019-05-05T08:56:04.111Z,8.20
2019-05-05T08:57:04.233Z,8.29
2019-05-05T08:58:04.571Z,8.29
2019-05-05T08:59:03.708Z,8.20
2019-05-05T09:00:04.900Z,8.20
2019-05-05T09:01:04.407Z,8.29
2019-05-05T09:02:04.544Z,8.29
2019-05-05T09:03:03.906Z,8.20
2019-05-05T09:04:04.127Z,8.20
2019-05-05T09:05:04.255Z,8.20
2019-05-05T09:06:04.685Z,8.29
2019-05-05T09:07:05.040Z,8.20
2019-05-05T09:08:04.615Z,8.20
2019-05-05T09:09:03.853Z,8.29
2019-05-05T09:10:03.870Z,8.20
2019-05-05T09:11:04.792Z,8.20
2019-05-05T09:12:04.573Z,8.29
2019-05-05T09:13:03.894Z,8.11
2019-05-05T09:14:04.118Z,8.11
2019-05-05T09:15:04.446Z,8.20
2019-05-05T09:16:03.727Z,8.20
2019-05-05T09:17:04.443Z,8.29
2019-05-05T09:18:05.002Z,8.20
2019-05-05T09:19:04.124Z,8.11
2019-05-05T09:20:04.544Z,8.29
2019-05-05T09:21:04.402Z,8.11
2019-05-05T09:22:06.802Z,8.11
2019-05-05T09:23:04.185Z,8.11
2019-05-05T09:24:05.384Z,8.11
2019-05-05T09:25:04.277Z,8.11
2019-05-05T09:26:04.433Z,8.11
2019-05-05T09:27:03.607Z,8.29
2019-05-05T09:28:05.964Z,8.11
2019-05-05T09:29:04.377Z,8.29
2019-05-05T09:30:03.892Z,8.10
2019-05-05T09:31:04.179Z,8.29
2019-05-05T09:32:04.018Z,8.20
2019-05-05T09:33:03.596Z,8.20
2019-05-05T09:34:04.158Z,8.20
2019-05-05T09:35:04.758Z,8.20
2019-05-05T09:36:04.694Z,8.10
2019-05-05T09:37:03.695Z,8.00
2019-05-05T09:38:03.993Z,8.10
2019-05-05T09:39:04.360Z,8.00
2019-05-05T09:40:04.526Z,8.10
2019-05-05T09:41:03.802Z,8.39
2019-05-05T09:42:04.082Z,8.20
2019-05-05T09:43:03.886Z,8.20
2019-05-05T09:44:04.275Z,8.20
2019-05-05T09:45:04.749Z,8.20
2019-05-05T09:46:03.880Z,8.00
2019-05-05T09:47:04.754Z,8.00
2019-05-05T09:48:04.313Z,8.10
2019-05-05T09:49:04.673Z,8.20
2019-05-05T09:50:03.935Z,8.20
2019-05-05T09:51:04.377Z,8.20
2019-05-05T09:52:04.831Z,8.29
2019-05-05T09:53:04.193Z,8.39
2019-05-05T09:54:11.848Z,8.39
2019-05-05T09:55:03.829Z,8.48
2019-05-05T09:56:04.079Z,8.48
2019-05-05T09:57:04.490Z,8.29
2019-05-05T09:58:04.488Z,8.29
2019-05-05T09:59:03.780Z,8.39
2019-05-05T10:00:04.594Z,8.39
2019-05-05T10:01:03.958Z,8.48
2019-05-05T10:02:04.410Z,8.48
2019-05-05T10:03:03.796Z,8.48
2019-05-05T10:04:04.508Z,8.87
2019-05-05T10:05:03.988Z,8.58
2019-05-05T10:06:04.708Z,8.58
2019-05-05T10:07:04.429Z,8.67
2019-05-05T10:08:03.552Z,8.58
2019-05-05T10:09:02.741Z,8.58
2019-05-05T10:10:04.539Z,8.67
2019-05-05T10:11:04.137Z,8.58
2019-05-05T10:12:04.640Z,8.67
2019-05-05T10:13:04.147Z,8.67
2019-05-05T10:14:03.971Z,8.77
2019-05-05T10:15:07.173Z,8.48
2019-05-05T10:16:03.934Z,8.39
2019-05-05T10:17:04.680Z,8.58
2019-05-05T10:18:03.530Z,8.39
2019-05-05T10:19:04.445Z,8.48
2019-05-05T10:20:03.959Z,8.58
2019-05-05T10:21:04.486Z,8.48
2019-05-05T10:22:04.086Z,8.48
2019-05-05T10:23:02.586Z,8.58
2019-05-05T10:24:04.471Z,8.39
2019-05-05T10:25:04.156Z,8.39
2019-05-05T10:26:04.379Z,8.87
2019-05-05T10:27:04.716Z,8.48
2019-05-05T10:28:04.206Z,8.48
2019-05-05T10:29:04.082Z,9.16
2019-05-05T10:30:04.149Z,8.77
2019-05-05T10:31:04.531Z,8.67
2019-05-05T10:32:04.421Z,8.58
2019-05-05T10:33:03.765Z,8.96
2019-05-05T10:34:04.393Z,8.67
2019-05-05T10:35:04.442Z,8.67
2019-05-05T10:36:02.467Z,8.58
2019-05-05T10:37:04.173Z,8.86
2019-05-05T10:38:02.446Z,8.96
2019-05-05T10:39:04.349Z,8.96
2019-05-05T10:40:03.624Z,8.86
2019-05-05T10:41:04.213Z,8.96
2019-05-05T10:42:04.052Z,8.86
2019-05-05T10:43:04.224Z,8.86
2019-05-05T10:44:03.656Z,8.76
2019-05-05T10:45:04.285Z,8.67
2019-05-05T10:46:03.884Z,8.58
2019-05-05T10:47:04.364Z,9.06
2019-05-05T10:48:04.098Z,8.96
2019-05-05T10:49:02.324Z,8.96
2019-05-05T10:50:02.315Z,9.06
2019-05-05T10:51:04.129Z,9.06
2019-05-05T10:52:03.660Z,8.96
2019-05-05T10:53:04.279Z,9.06
2019-05-05T10:54:04.047Z,9.25
2019-05-05T10:55:03.931Z,9.15
2019-05-05T10:56:04.287Z,9.15
2019-05-05T10:57:03.967Z,8.96
2019-05-05T10:58:02.220Z,9.06
2019-05-05T10:59:03.954Z,9.06
2019-05-05T11:00:11.689Z,9.06
2019-05-05T11:01:04.112Z,9.15
2019-05-05T11:02:04.614Z,9.15
2019-05-05T11:03:03.930Z,9.06
2019-05-05T11:04:02.181Z,9.15
2019-05-05T11:05:03.964Z,9.06
2019-05-05T11:06:04.343Z,9.15
2019-05-05T11:07:03.976Z,9.06
2019-05-05T11:08:04.246Z,9.15
2019-05-05T11:09:04.321Z,9.06
2019-05-05T11:10:03.597Z,9.05
2019-05-05T11:11:04.063Z,9.25
2019-05-05T11:12:02.077Z,9.05
2019-05-05T11:13:02.096Z,8.95
2019-05-05T11:14:03.744Z,9.44
2019-05-05T11:15:03.952Z,9.15
2019-05-05T11:16:03.877Z,8.86
2019-05-05T11:17:03.920Z,8.86
2019-05-05T11:18:03.926Z,8.95
2019-05-05T11:19:04.201Z,8.86
2019-05-05T11:20:03.700Z,9.15
2019-05-05T11:21:03.911Z,9.25
2019-05-05T11:22:01.984Z,9.25
2019-05-05T11:23:01.981Z,9.34
2019-05-05T11:24:01.970Z,9.15
2019-05-05T11:25:01.974Z,9.25
2019-05-05T11:26:01.947Z,9.15
2019-05-05T11:27:01.936Z,9.25
2019-05-05T11:28:03.415Z,9.25
2019-05-05T11:29:04.124Z,9.25
2019-05-05T11:30:03.903Z,9.15
2019-05-05T11:31:04.231Z,9.34
2019-05-05T11:32:03.573Z,9.34
2019-05-05T11:33:03.890Z,9.44
2019-05-05T11:34:01.874Z,9.34
2019-05-05T11:35:01.864Z,9.15
2019-05-05T11:36:01.848Z,9.25
2019-05-05T11:37:03.623Z,9.25
2019-05-05T11:38:03.198Z,9.25
2019-05-05T11:39:03.971Z,9.44
2019-05-05T11:40:01.813Z,9.53
2019-05-05T11:41:01.804Z,9.44
2019-05-05T11:42:04.231Z,9.53
2019-05-05T11:43:03.772Z,9.53
2019-05-05T11:44:03.929Z,9.53
2019-05-05T11:45:04.075Z,9.72
2019-05-05T11:46:01.743Z,9.72
2019-05-05T11:47:03.609Z,9.63
2019-05-05T11:48:01.718Z,9.63
2019-05-05T11:49:01.703Z,9.63
2019-05-05T11:50:04.243Z,9.63
2019-05-05T11:51:01.692Z,9.72
2019-05-05T11:52:01.686Z,9.53
2019-05-05T11:53:03.811Z,9.53
2019-05-05T11:54:01.643Z,9.63
2019-05-05T11:55:09.750Z,9.72
2019-05-05T11:56:03.992Z,9.63
2019-05-05T11:57:01.624Z,9.43
2019-05-05T11:58:03.447Z,9.63
2019-05-05T11:59:03.730Z,9.63
2019-05-05T12:00:03.717Z,9.63
2019-05-05T12:01:03.568Z,9.53
2019-05-05T12:02:03.663Z,9.63
2019-05-05T12:03:03.695Z,9.53
2019-05-05T12:04:01.539Z,9.63
2019-05-05T12:05:01.542Z,9.43
2019-05-05T12:06:03.772Z,9.43
2019-05-05T12:07:01.523Z,9.72
2019-05-05T12:08:01.520Z,9.81
2019-05-05T12:09:01.489Z,9.91
2019-05-05T12:10:01.488Z,9.81
2019-05-05T12:11:01.481Z,9.63
2019-05-05T12:12:03.686Z,9.72
2019-05-05T12:13:01.458Z,10.20
2019-05-05T12:14:03.494Z,10.20
2019-05-05T12:15:01.450Z,9.91
2019-05-05T12:16:01.435Z,10.01
2019-05-05T12:17:01.421Z,10.01
2019-05-05T12:18:01.415Z,9.91
2019-05-05T12:19:01.392Z,10.01
2019-05-05T12:20:01.396Z,10.01
2019-05-05T12:21:01.385Z,10.01
2019-05-05T12:22:01.358Z,10.11
2019-05-05T12:23:01.366Z,10.11
2019-05-05T12:24:01.334Z,9.91
2019-05-05T12:25:01.336Z,9.81
2019-05-05T12:26:01.340Z,9.91
2019-05-05T12:27:03.565Z,9.91
2019-05-05T12:28:01.291Z,9.91
2019-05-05T12:29:01.302Z,9.91
2019-05-05T12:30:03.243Z,9.81
2019-05-05T12:31:01.261Z,10.01
2019-05-05T12:32:01.276Z,9.91
2019-05-05T12:33:01.262Z,10.00
2019-05-05T12:34:01.263Z,10.00
2019-05-05T12:35:01.220Z,10.39
2019-05-05T12:36:01.212Z,10.00
2019-05-05T12:37:01.215Z,10.01
2019-05-05T12:38:01.188Z,10.20
2019-05-05T12:39:01.177Z,10.20
2019-05-05T12:40:01.178Z,10.20
2019-05-05T12:41:01.179Z,10.20
2019-05-05T12:42:01.158Z,10.20
2019-05-05T12:43:01.144Z,10.20
2019-05-05T12:44:01.137Z,10.20
2019-05-05T12:45:01.137Z,10.00
2019-05-05T12:46:01.113Z,10.20
2019-05-05T12:47:01.095Z,10.29
2019-05-05T12:48:01.094Z,10.29
2019-05-05T12:49:01.100Z,10.20
2019-05-05T12:50:01.072Z,10.20
2019-05-05T12:51:01.071Z,10.29
2019-05-05T12:52:01.053Z,10.29
2019-05-05T12:53:01.044Z,10.10
2019-05-05T12:54:01.027Z,10.20
2019-05-05T12:55:04.312Z,10.10
2019-05-05T12:56:01.003Z,10.10
2019-05-05T12:57:01.011Z,10.20
2019-05-05T12:58:00.991Z,10.10
2019-05-05T12:59:00.975Z,10.20
2019-05-05T13:00:00.966Z,10.00
2019-05-05T13:01:00.952Z,10.00
2019-05-05T13:02:00.934Z,10.10
2019-05-05T13:03:00.931Z,10.00
2019-05-05T13:04:00.919Z,10.10
2019-05-05T13:05:00.902Z,10.10
2019-05-05T13:06:00.894Z,10.10
2019-05-05T13:07:00.891Z,10.10
2019-05-05T13:08:00.894Z,10.00
2019-05-05T13:09:00.886Z,9.91
2019-05-05T13:10:00.877Z,10.10
2019-05-05T13:11:00.842Z,10.10
2019-05-05T13:12:00.855Z,10.00
2019-05-05T13:13:00.828Z,10.00
2019-05-05T13:14:00.835Z,10.00
2019-05-05T13:15:00.799Z,10.20
2019-05-05T13:16:00.798Z,10.20